sensor_id;sensor_type;location;lat;lon;timestamp;P1;durP1;ratioP1;P2;durP2;ratioP2
80421;SDS011;69763;50.182;9.144;2024-03-06T00:00:19;18.27;;;9.20;;
80421;SDS011;69763;50.182;9.144;2024-03-06T00:02:44;17.40;;;9.18;;
80421;SDS011;69763;50.182;9.144;2024-03-06T00:05:10;19.92;;;9.60;;
80421;SDS011;69763;50.182;9.144;2024-03-06T00:07:35;18.48;;;8.90;;
80421;SDS011;69763;50.182;9.144;2024-03-06T00:10:02;18.33;;;9.65;;
80421;SDS011;69763;50.182;9.144;2024-03-06T00:12:28;20.88;;;9.57;;
80421;SDS011;69763;50.182;9.144;2024-03-06T00:14:53;23.30;;;10.35;;
80421;SDS011;69763;50.182;9.144;2024-03-06T00:17:19;22.83;;;10.52;;
80421;SDS011;69763;50.182;9.144;2024-03-06T00:19:44;22.42;;;8.68;;
80421;SDS011;69763;50.182;9.144;2024-03-06T00:22:10;22.33;;;9.63;;
80421;SDS011;69763;50.182;9.144;2024-03-06T00:24:35;16.23;;;8.88;;
80421;SDS011;69763;50.182;9.144;2024-03-06T00:27:02;19.85;;;9.07;;
80421;SDS011;69763;50.182;9.144;2024-03-06T00:31:52;13.77;;;7.37;;
80421;SDS011;69763;50.182;9.144;2024-03-06T00:34:18;17.55;;;7.75;;
80421;SDS011;69763;50.182;9.144;2024-03-06T00:36:46;21.45;;;8.63;;
80421;SDS011;69763;50.182;9.144;2024-03-06T00:39:12;19.23;;;9.02;;
80421;SDS011;69763;50.182;9.144;2024-03-06T00:41:37;15.13;;;7.78;;
80421;SDS011;69763;50.182;9.144;2024-03-06T00:44:04;24.85;;;9.40;;
80421;SDS011;69763;50.182;9.144;2024-03-06T00:46:30;19.77;;;9.88;;
80421;SDS011;69763;50.182;9.144;2024-03-06T00:48:55;21.35;;;9.68;;
80421;SDS011;69763;50.182;9.144;2024-03-06T00:51:21;26.15;;;11.15;;
80421;SDS011;69763;50.182;9.144;2024-03-06T00:53:46;20.90;;;10.07;;
80421;SDS011;69763;50.182;9.144;2024-03-06T00:56:11;19.73;;;9.05;;
80421;SDS011;69763;50.182;9.144;2024-03-06T00:58:37;19.95;;;10.23;;
80421;SDS011;69763;50.182;9.144;2024-03-06T01:01:04;22.60;;;10.27;;
80421;SDS011;69763;50.182;9.144;2024-03-06T01:03:29;20.20;;;10.98;;
80421;SDS011;69763;50.182;9.144;2024-03-06T01:05:54;23.83;;;9.98;;
80421;SDS011;69763;50.182;9.144;2024-03-06T01:08:21;18.55;;;8.90;;
80421;SDS011;69763;50.182;9.144;2024-03-06T01:10:46;25.20;;;10.05;;
80421;SDS011;69763;50.182;9.144;2024-03-06T01:13:11;21.88;;;10.32;;
80421;SDS011;69763;50.182;9.144;2024-03-06T01:15:37;19.02;;;8.88;;
80421;SDS011;69763;50.182;9.144;2024-03-06T01:18:04;25.13;;;10.70;;
80421;SDS011;69763;50.182;9.144;2024-03-06T01:20:30;19.45;;;8.60;;
80421;SDS011;69763;50.182;9.144;2024-03-06T01:22:55;21.42;;;9.18;;
80421;SDS011;69763;50.182;9.144;2024-03-06T01:25:21;18.38;;;8.25;;
80421;SDS011;69763;50.182;9.144;2024-03-06T01:27:47;23.27;;;9.32;;
80421;SDS011;69763;50.182;9.144;2024-03-06T01:30:12;20.52;;;9.30;;
80421;SDS011;69763;50.182;9.144;2024-03-06T01:32:38;19.13;;;9.05;;
80421;SDS011;69763;50.182;9.144;2024-03-06T01:35:05;17.77;;;9.80;;
80421;SDS011;69763;50.182;9.144;2024-03-06T01:37:31;18.63;;;9.15;;
80421;SDS011;69763;50.182;9.144;2024-03-06T01:39:57;18.88;;;9.95;;
80421;SDS011;69763;50.182;9.144;2024-03-06T01:42:22;19.67;;;9.73;;
80421;SDS011;69763;50.182;9.144;2024-03-06T01:44:47;24.48;;;8.93;;
80421;SDS011;69763;50.182;9.144;2024-03-06T01:47:13;25.83;;;8.88;;
80421;SDS011;69763;50.182;9.144;2024-03-06T01:49:38;21.02;;;8.95;;
80421;SDS011;69763;50.182;9.144;2024-03-06T01:52:07;17.20;;;8.95;;
80421;SDS011;69763;50.182;9.144;2024-03-06T01:54:34;21.45;;;9.73;;
80421;SDS011;69763;50.182;9.144;2024-03-06T01:57:00;22.83;;;9.57;;
80421;SDS011;69763;50.182;9.144;2024-03-06T01:59:28;16.13;;;8.98;;
80421;SDS011;69763;50.182;9.144;2024-03-06T02:01:53;23.23;;;9.52;;
80421;SDS011;69763;50.182;9.144;2024-03-06T02:04:19;20.40;;;9.43;;
80421;SDS011;69763;50.182;9.144;2024-03-06T02:06:44;24.67;;;9.27;;
80421;SDS011;69763;50.182;9.144;2024-03-06T02:09:11;19.75;;;9.00;;
80421;SDS011;69763;50.182;9.144;2024-03-06T02:11:37;23.60;;;9.55;;
80421;SDS011;69763;50.182;9.144;2024-03-06T02:14:02;17.58;;;9.02;;
80421;SDS011;69763;50.182;9.144;2024-03-06T02:16:28;20.73;;;8.55;;
80421;SDS011;69763;50.182;9.144;2024-03-06T02:18:53;20.05;;;9.05;;
80421;SDS011;69763;50.182;9.144;2024-03-06T02:21:20;22.45;;;9.90;;
80421;SDS011;69763;50.182;9.144;2024-03-06T02:23:46;23.35;;;9.00;;
80421;SDS011;69763;50.182;9.144;2024-03-06T02:26:12;17.85;;;9.18;;
80421;SDS011;69763;50.182;9.144;2024-03-06T02:28:37;19.13;;;9.55;;
80421;SDS011;69763;50.182;9.144;2024-03-06T02:31:02;20.90;;;9.30;;
80421;SDS011;69763;50.182;9.144;2024-03-06T02:33:28;23.33;;;9.02;;
80421;SDS011;69763;50.182;9.144;2024-03-06T02:35:54;22.40;;;9.98;;
80421;SDS011;69763;50.182;9.144;2024-03-06T02:38:21;18.48;;;9.18;;
80421;SDS011;69763;50.182;9.144;2024-03-06T02:40:46;22.42;;;9.63;;
80421;SDS011;69763;50.182;9.144;2024-03-06T02:43:11;21.48;;;9.93;;
80421;SDS011;69763;50.182;9.144;2024-03-06T02:45:37;19.20;;;10.15;;
80421;SDS011;69763;50.182;9.144;2024-03-06T02:48:02;22.40;;;9.88;;
80421;SDS011;69763;50.182;9.144;2024-03-06T02:50:28;22.38;;;9.23;;
80421;SDS011;69763;50.182;9.144;2024-03-06T02:52:54;21.38;;;9.13;;
80421;SDS011;69763;50.182;9.144;2024-03-06T02:55:21;20.60;;;8.95;;
80421;SDS011;69763;50.182;9.144;2024-03-06T02:57:47;19.13;;;8.60;;
80421;SDS011;69763;50.182;9.144;2024-03-06T03:00:13;22.92;;;9.82;;
80421;SDS011;69763;50.182;9.144;2024-03-06T03:02:39;23.95;;;10.05;;
80421;SDS011;69763;50.182;9.144;2024-03-06T03:05:04;21.85;;;9.30;;
80421;SDS011;69763;50.182;9.144;2024-03-06T03:07:30;17.98;;;8.95;;
80421;SDS011;69763;50.182;9.144;2024-03-06T03:09:56;23.85;;;10.02;;
80421;SDS011;69763;50.182;9.144;2024-03-06T03:12:22;21.85;;;8.82;;
80421;SDS011;69763;50.182;9.144;2024-03-06T03:14:48;17.90;;;9.02;;
80421;SDS011;69763;50.182;9.144;2024-03-06T03:17:13;16.60;;;9.40;;
80421;SDS011;69763;50.182;9.144;2024-03-06T03:19:38;28.08;;;10.65;;
80421;SDS011;69763;50.182;9.144;2024-03-06T03:22:04;20.33;;;9.73;;
80421;SDS011;69763;50.182;9.144;2024-03-06T03:24:29;22.20;;;10.25;;
80421;SDS011;69763;50.182;9.144;2024-03-06T03:26:55;27.05;;;9.45;;
80421;SDS011;69763;50.182;9.144;2024-03-06T03:29:21;23.02;;;10.55;;
80421;SDS011;69763;50.182;9.144;2024-03-06T03:31:47;20.83;;;8.93;;
80421;SDS011;69763;50.182;9.144;2024-03-06T03:34:12;22.90;;;10.07;;
80421;SDS011;69763;50.182;9.144;2024-03-06T03:36:39;19.27;;;9.52;;
80421;SDS011;69763;50.182;9.144;2024-03-06T03:39:05;21.25;;;9.00;;
80421;SDS011;69763;50.182;9.144;2024-03-06T03:41:30;23.88;;;10.02;;
80421;SDS011;69763;50.182;9.144;2024-03-06T03:43:56;22.48;;;10.38;;
80421;SDS011;69763;50.182;9.144;2024-03-06T03:46:22;22.55;;;9.75;;
80421;SDS011;69763;50.182;9.144;2024-03-06T03:48:48;22.42;;;9.60;;
80421;SDS011;69763;50.182;9.144;2024-03-06T03:51:13;19.08;;;8.82;;
80421;SDS011;69763;50.182;9.144;2024-03-06T03:53:38;23.90;;;9.23;;
80421;SDS011;69763;50.182;9.144;2024-03-06T03:56:04;19.65;;;9.35;;
80421;SDS011;69763;50.182;9.144;2024-03-06T03:58:30;26.75;;;11.13;;
80421;SDS011;69763;50.182;9.144;2024-03-06T04:00:55;27.52;;;10.43;;
80421;SDS011;69763;50.182;9.144;2024-03-06T04:03:22;26.55;;;9.95;;
80421;SDS011;69763;50.182;9.144;2024-03-06T04:05:48;22.67;;;9.80;;
80421;SDS011;69763;50.182;9.144;2024-03-06T04:08:13;21.00;;;9.48;;
80421;SDS011;69763;50.182;9.144;2024-03-06T04:10:39;26.80;;;10.45;;
80421;SDS011;69763;50.182;9.144;2024-03-06T04:13:04;22.55;;;9.90;;
80421;SDS011;69763;50.182;9.144;2024-03-06T04:15:30;26.20;;;9.65;;
80421;SDS011;69763;50.182;9.144;2024-03-06T04:17:55;28.05;;;11.38;;
80421;SDS011;69763;50.182;9.144;2024-03-06T04:20:22;28.77;;;10.13;;
80421;SDS011;69763;50.182;9.144;2024-03-06T04:22:47;29.02;;;10.82;;
80421;SDS011;69763;50.182;9.144;2024-03-06T04:25:13;22.63;;;10.23;;
80421;SDS011;69763;50.182;9.144;2024-03-06T04:27:38;29.13;;;11.02;;
80421;SDS011;69763;50.182;9.144;2024-03-06T04:30:04;24.63;;;9.50;;
80421;SDS011;69763;50.182;9.144;2024-03-06T04:32:30;23.63;;;9.70;;
80421;SDS011;69763;50.182;9.144;2024-03-06T04:34:55;26.73;;;10.15;;
80421;SDS011;69763;50.182;9.144;2024-03-06T04:37:22;25.40;;;9.93;;
80421;SDS011;69763;50.182;9.144;2024-03-06T04:39:47;24.95;;;10.85;;
80421;SDS011;69763;50.182;9.144;2024-03-06T04:42:13;24.52;;;10.82;;
80421;SDS011;69763;50.182;9.144;2024-03-06T04:44:38;27.77;;;10.65;;
80421;SDS011;69763;50.182;9.144;2024-03-06T04:47:04;23.67;;;9.85;;
80421;SDS011;69763;50.182;9.144;2024-03-06T04:49:32;21.90;;;8.88;;
80421;SDS011;69763;50.182;9.144;2024-03-06T04:51:57;24.67;;;10.05;;
80421;SDS011;69763;50.182;9.144;2024-03-06T04:54:24;18.60;;;10.05;;
80421;SDS011;69763;50.182;9.144;2024-03-06T04:56:49;23.13;;;9.55;;
80421;SDS011;69763;50.182;9.144;2024-03-06T04:59:15;21.10;;;9.23;;
80421;SDS011;69763;50.182;9.144;2024-03-06T05:01:40;29.27;;;10.55;;
80421;SDS011;69763;50.182;9.144;2024-03-06T05:04:05;26.13;;;8.98;;
80421;SDS011;69763;50.182;9.144;2024-03-06T05:06:31;33.50;;;11.95;;
80421;SDS011;69763;50.182;9.144;2024-03-06T05:08:56;28.67;;;12.13;;
80421;SDS011;69763;50.182;9.144;2024-03-06T05:11:23;29.50;;;10.80;;
80421;SDS011;69763;50.182;9.144;2024-03-06T05:13:48;34.40;;;13.43;;
80421;SDS011;69763;50.182;9.144;2024-03-06T05:16:14;26.35;;;11.30;;
80421;SDS011;69763;50.182;9.144;2024-03-06T05:18:39;35.55;;;10.52;;
80421;SDS011;69763;50.182;9.144;2024-03-06T05:21:04;23.63;;;8.52;;
80421;SDS011;69763;50.182;9.144;2024-03-06T05:23:30;28.48;;;9.88;;
80421;SDS011;69763;50.182;9.144;2024-03-06T05:25:55;26.00;;;9.82;;
80421;SDS011;69763;50.182;9.144;2024-03-06T05:28:22;19.25;;;7.63;;
80421;SDS011;69763;50.182;9.144;2024-03-06T05:30:47;24.92;;;9.43;;
80421;SDS011;69763;50.182;9.144;2024-03-06T05:33:13;26.63;;;9.57;;
80421;SDS011;69763;50.182;9.144;2024-03-06T05:35:38;20.85;;;8.88;;
80421;SDS011;69763;50.182;9.144;2024-03-06T05:38:03;23.60;;;10.35;;
80421;SDS011;69763;50.182;9.144;2024-03-06T05:40:29;30.27;;;10.50;;
80421;SDS011;69763;50.182;9.144;2024-03-06T05:42:54;31.13;;;11.65;;
80421;SDS011;69763;50.182;9.144;2024-03-06T05:45:21;26.33;;;9.90;;
80421;SDS011;69763;50.182;9.144;2024-03-06T05:47:46;28.17;;;10.23;;
80421;SDS011;69763;50.182;9.144;2024-03-06T05:50:12;33.20;;;11.85;;
80421;SDS011;69763;50.182;9.144;2024-03-06T05:52:37;28.85;;;11.75;;
80421;SDS011;69763;50.182;9.144;2024-03-06T05:55:03;41.95;;;13.55;;
80421;SDS011;69763;50.182;9.144;2024-03-06T05:57:28;38.83;;;12.73;;
80421;SDS011;69763;50.182;9.144;2024-03-06T05:59:54;31.25;;;10.45;;
80421;SDS011;69763;50.182;9.144;2024-03-06T06:02:20;32.60;;;11.55;;
80421;SDS011;69763;50.182;9.144;2024-03-06T06:04:46;20.15;;;9.93;;
80421;SDS011;69763;50.182;9.144;2024-03-06T06:07:11;25.45;;;11.02;;
80421;SDS011;69763;50.182;9.144;2024-03-06T06:09:36;27.02;;;11.73;;
80421;SDS011;69763;50.182;9.144;2024-03-06T06:12:02;44.13;;;14.38;;
80421;SDS011;69763;50.182;9.144;2024-03-06T06:14:27;42.75;;;13.98;;
80421;SDS011;69763;50.182;9.144;2024-03-06T06:16:53;33.88;;;12.80;;
80421;SDS011;69763;50.182;9.144;2024-03-06T06:19:19;31.20;;;12.77;;
80421;SDS011;69763;50.182;9.144;2024-03-06T06:21:45;43.75;;;13.85;;
80421;SDS011;69763;50.182;9.144;2024-03-06T06:24:10;37.75;;;12.98;;
80421;SDS011;69763;50.182;9.144;2024-03-06T06:26:35;38.30;;;12.10;;
80421;SDS011;69763;50.182;9.144;2024-03-06T06:29:01;45.72;;;13.52;;
80421;SDS011;69763;50.182;9.144;2024-03-06T06:31:26;34.95;;;12.30;;
80421;SDS011;69763;50.182;9.144;2024-03-06T06:33:52;57.22;;;14.20;;
80421;SDS011;69763;50.182;9.144;2024-03-06T06:36:19;57.85;;;14.48;;
80421;SDS011;69763;50.182;9.144;2024-03-06T06:38:44;35.45;;;12.52;;
80421;SDS011;69763;50.182;9.144;2024-03-06T06:41:10;29.45;;;11.77;;
80421;SDS011;69763;50.182;9.144;2024-03-06T06:43:35;27.88;;;10.85;;
80421;SDS011;69763;50.182;9.144;2024-03-06T06:46:01;54.20;;;13.55;;
80421;SDS011;69763;50.182;9.144;2024-03-06T06:48:26;47.17;;;12.98;;
80421;SDS011;69763;50.182;9.144;2024-03-06T06:50:51;79.45;;;15.00;;
80421;SDS011;69763;50.182;9.144;2024-03-06T06:53:18;28.27;;;11.27;;
80421;SDS011;69763;50.182;9.144;2024-03-06T06:55:44;32.55;;;11.70;;
80421;SDS011;69763;50.182;9.144;2024-03-06T06:58:09;25.45;;;11.60;;
80421;SDS011;69763;50.182;9.144;2024-03-06T07:00:34;38.88;;;12.50;;
80421;SDS011;69763;50.182;9.144;2024-03-06T07:03:00;28.90;;;11.10;;
80421;SDS011;69763;50.182;9.144;2024-03-06T07:05:25;29.00;;;11.70;;
80421;SDS011;69763;50.182;9.144;2024-03-06T07:07:50;36.70;;;12.95;;
80421;SDS011;69763;50.182;9.144;2024-03-06T07:10:17;26.25;;;12.85;;
80421;SDS011;69763;50.182;9.144;2024-03-06T07:12:42;26.70;;;12.65;;
80421;SDS011;69763;50.182;9.144;2024-03-06T07:15:08;41.45;;;13.15;;
80421;SDS011;69763;50.182;9.144;2024-03-06T07:17:34;26.13;;;12.55;;
80421;SDS011;69763;50.182;9.144;2024-03-06T07:19:59;28.17;;;12.38;;
80421;SDS011;69763;50.182;9.144;2024-03-06T07:22:24;31.65;;;12.75;;
80421;SDS011;69763;50.182;9.144;2024-03-06T07:24:50;31.63;;;12.45;;
80421;SDS011;69763;50.182;9.144;2024-03-06T07:27:16;44.33;;;13.25;;
80421;SDS011;69763;50.182;9.144;2024-03-06T07:32:07;30.33;;;12.63;;
80421;SDS011;69763;50.182;9.144;2024-03-06T07:34:32;26.80;;;12.45;;
80421;SDS011;69763;50.182;9.144;2024-03-06T07:36:58;32.97;;;13.80;;
80421;SDS011;69763;50.182;9.144;2024-03-06T07:39:24;35.97;;;13.77;;
80421;SDS011;69763;50.182;9.144;2024-03-06T07:41:50;35.88;;;13.15;;
80421;SDS011;69763;50.182;9.144;2024-03-06T07:44:16;30.85;;;13.77;;
80421;SDS011;69763;50.182;9.144;2024-03-06T07:49:07;28.20;;;11.30;;
80421;SDS011;69763;50.182;9.144;2024-03-06T07:51:32;27.20;;;12.15;;
80421;SDS011;69763;50.182;9.144;2024-03-06T07:53:58;32.50;;;13.27;;
80421;SDS011;69763;50.182;9.144;2024-03-06T07:56:23;28.17;;;12.50;;
80421;SDS011;69763;50.182;9.144;2024-03-06T07:58:49;31.10;;;12.45;;
80421;SDS011;69763;50.182;9.144;2024-03-06T08:01:15;29.65;;;12.63;;
80421;SDS011;69763;50.182;9.144;2024-03-06T08:03:41;33.05;;;13.68;;
80421;SDS011;69763;50.182;9.144;2024-03-06T08:06:06;25.40;;;11.18;;
80421;SDS011;69763;50.182;9.144;2024-03-06T08:08:32;26.52;;;11.13;;
80421;SDS011;69763;50.182;9.144;2024-03-06T08:10:57;33.47;;;13.00;;
80421;SDS011;69763;50.182;9.144;2024-03-06T08:13:23;30.77;;;11.38;;
80421;SDS011;69763;50.182;9.144;2024-03-06T08:15:48;26.65;;;10.45;;
80421;SDS011;69763;50.182;9.144;2024-03-06T08:18:15;30.27;;;13.57;;
80421;SDS011;69763;50.182;9.144;2024-03-06T08:20:40;29.73;;;12.77;;
80421;SDS011;69763;50.182;9.144;2024-03-06T08:23:06;32.03;;;13.30;;
80421;SDS011;69763;50.182;9.144;2024-03-06T08:25:32;30.88;;;12.20;;
80421;SDS011;69763;50.182;9.144;2024-03-06T08:27:57;27.88;;;11.50;;
80421;SDS011;69763;50.182;9.144;2024-03-06T08:30:23;25.80;;;12.10;;
80421;SDS011;69763;50.182;9.144;2024-03-06T08:32:48;28.92;;;11.95;;
80421;SDS011;69763;50.182;9.144;2024-03-06T08:35:15;32.28;;;13.73;;
80421;SDS011;69763;50.182;9.144;2024-03-06T08:37:40;27.90;;;11.30;;
80421;SDS011;69763;50.182;9.144;2024-03-06T08:40:06;29.75;;;11.65;;
80421;SDS011;69763;50.182;9.144;2024-03-06T08:42:32;32.10;;;13.13;;
80421;SDS011;69763;50.182;9.144;2024-03-06T08:44:58;28.65;;;12.95;;
80421;SDS011;69763;50.182;9.144;2024-03-06T08:47:23;28.30;;;12.18;;
80421;SDS011;69763;50.182;9.144;2024-03-06T08:49:49;29.63;;;11.95;;
80421;SDS011;69763;50.182;9.144;2024-03-06T08:52:16;32.40;;;13.43;;
80421;SDS011;69763;50.182;9.144;2024-03-06T08:57:06;31.93;;;12.00;;
80421;SDS011;69763;50.182;9.144;2024-03-06T08:59:32;27.95;;;11.75;;
80421;SDS011;69763;50.182;9.144;2024-03-06T09:01:57;32.20;;;12.90;;
80421;SDS011;69763;50.182;9.144;2024-03-06T09:04:23;25.33;;;11.23;;
80421;SDS011;69763;50.182;9.144;2024-03-06T09:06:48;31.52;;;11.10;;
80421;SDS011;69763;50.182;9.144;2024-03-06T09:09:15;24.77;;;11.52;;
80421;SDS011;69763;50.182;9.144;2024-03-06T09:14:05;22.67;;;10.38;;
80421;SDS011;69763;50.182;9.144;2024-03-06T09:16:31;31.75;;;12.60;;
80421;SDS011;69763;50.182;9.144;2024-03-06T09:18:56;24.88;;;11.60;;
80421;SDS011;69763;50.182;9.144;2024-03-06T09:21:22;24.10;;;11.70;;
80421;SDS011;69763;50.182;9.144;2024-03-06T09:23:47;22.98;;;11.43;;
80421;SDS011;69763;50.182;9.144;2024-03-06T09:26:14;22.13;;;11.25;;
80421;SDS011;69763;50.182;9.144;2024-03-06T09:28:39;28.00;;;12.50;;
80421;SDS011;69763;50.182;9.144;2024-03-06T09:31:04;26.92;;;12.68;;
80421;SDS011;69763;50.182;9.144;2024-03-06T09:33:30;25.80;;;12.23;;
80421;SDS011;69763;50.182;9.144;2024-03-06T09:35:55;26.15;;;11.73;;
80421;SDS011;69763;50.182;9.144;2024-03-06T09:38:21;25.55;;;11.32;;
80421;SDS011;69763;50.182;9.144;2024-03-06T09:40:46;28.38;;;12.25;;
80421;SDS011;69763;50.182;9.144;2024-03-06T09:43:13;24.65;;;11.95;;
80421;SDS011;69763;50.182;9.144;2024-03-06T09:45:38;28.73;;;13.07;;
80421;SDS011;69763;50.182;9.144;2024-03-06T09:48:05;25.60;;;11.70;;
80421;SDS011;69763;50.182;9.144;2024-03-06T09:50:32;23.35;;;12.18;;
80421;SDS011;69763;50.182;9.144;2024-03-06T09:52:59;28.58;;;12.60;;
80421;SDS011;69763;50.182;9.144;2024-03-06T09:55:25;31.45;;;14.35;;
80421;SDS011;69763;50.182;9.144;2024-03-06T09:57:51;26.23;;;13.35;;
80421;SDS011;69763;50.182;9.144;2024-03-06T10:00:18;28.23;;;12.18;;
80421;SDS011;69763;50.182;9.144;2024-03-06T10:02:46;31.55;;;12.73;;
80421;SDS011;69763;50.182;9.144;2024-03-06T10:05:22;23.42;;;11.13;;
80421;SDS011;69763;50.182;9.144;2024-03-06T10:07:49;30.73;;;13.50;;
80421;SDS011;69763;50.182;9.144;2024-03-06T10:10:15;28.58;;;11.38;;
80421;SDS011;69763;50.182;9.144;2024-03-06T10:12:41;32.17;;;12.35;;
80421;SDS011;69763;50.182;9.144;2024-03-06T10:15:06;25.17;;;11.93;;
80421;SDS011;69763;50.182;9.144;2024-03-06T10:17:33;23.05;;;12.50;;
80421;SDS011;69763;50.182;9.144;2024-03-06T10:22:24;23.27;;;10.60;;
80421;SDS011;69763;50.182;9.144;2024-03-06T10:24:49;25.23;;;12.05;;
80421;SDS011;69763;50.182;9.144;2024-03-06T10:27:15;26.67;;;11.85;;
80421;SDS011;69763;50.182;9.144;2024-03-06T10:29:41;28.38;;;12.27;;
80421;SDS011;69763;50.182;9.144;2024-03-06T10:32:06;28.25;;;10.80;;
80421;SDS011;69763;50.182;9.144;2024-03-06T10:34:33;26.90;;;12.98;;
80421;SDS011;69763;50.182;9.144;2024-03-06T10:36:59;27.60;;;12.35;;
80421;SDS011;69763;50.182;9.144;2024-03-06T10:39:26;26.83;;;12.25;;
80421;SDS011;69763;50.182;9.144;2024-03-06T10:41:52;26.50;;;11.13;;
80421;SDS011;69763;50.182;9.144;2024-03-06T10:46:46;26.90;;;12.68;;
80421;SDS011;69763;50.182;9.144;2024-03-06T10:49:16;23.27;;;10.80;;
80421;SDS011;69763;50.182;9.144;2024-03-06T10:51:44;22.92;;;11.10;;
80421;SDS011;69763;50.182;9.144;2024-03-06T10:54:12;25.95;;;10.98;;
80421;SDS011;69763;50.182;9.144;2024-03-06T10:56:39;21.92;;;9.98;;
80421;SDS011;69763;50.182;9.144;2024-03-06T10:59:05;22.52;;;10.88;;
80421;SDS011;69763;50.182;9.144;2024-03-06T11:03:57;27.40;;;11.57;;
80421;SDS011;69763;50.182;9.144;2024-03-06T11:06:25;24.60;;;10.02;;
80421;SDS011;69763;50.182;9.144;2024-03-06T11:08:52;22.70;;;10.48;;
80421;SDS011;69763;50.182;9.144;2024-03-06T11:11:21;23.90;;;10.38;;
80421;SDS011;69763;50.182;9.144;2024-03-06T11:13:47;21.95;;;10.32;;
80421;SDS011;69763;50.182;9.144;2024-03-06T11:16:13;21.48;;;9.85;;
80421;SDS011;69763;50.182;9.144;2024-03-06T11:18:42;19.38;;;9.20;;
80421;SDS011;69763;50.182;9.144;2024-03-06T11:24:15;17.13;;;8.20;;
80421;SDS011;69763;50.182;9.144;2024-03-06T11:26:42;17.88;;;8.85;;
80421;SDS011;69763;50.182;9.144;2024-03-06T11:29:08;20.90;;;9.27;;
80421;SDS011;69763;50.182;9.144;2024-03-06T11:31:33;21.88;;;9.07;;
80421;SDS011;69763;50.182;9.144;2024-03-06T11:34:01;17.40;;;8.32;;
80421;SDS011;69763;50.182;9.144;2024-03-06T11:36:29;16.10;;;8.50;;
80421;SDS011;69763;50.182;9.144;2024-03-06T11:38:55;21.30;;;8.95;;
80421;SDS011;69763;50.182;9.144;2024-03-06T11:41:23;17.42;;;7.75;;
80421;SDS011;69763;50.182;9.144;2024-03-06T11:43:50;17.40;;;8.35;;
80421;SDS011;69763;50.182;9.144;2024-03-06T11:46:16;16.45;;;7.85;;
80421;SDS011;69763;50.182;9.144;2024-03-06T11:48:41;17.58;;;8.20;;
80421;SDS011;69763;50.182;9.144;2024-03-06T11:51:07;17.30;;;7.88;;
80421;SDS011;69763;50.182;9.144;2024-03-06T11:53:33;17.48;;;8.27;;
80421;SDS011;69763;50.182;9.144;2024-03-06T11:55:59;18.67;;;8.80;;
80421;SDS011;69763;50.182;9.144;2024-03-06T11:58:26;18.08;;;8.18;;
80421;SDS011;69763;50.182;9.144;2024-03-06T12:00:51;16.40;;;8.35;;
80421;SDS011;69763;50.182;9.144;2024-03-06T12:03:18;16.80;;;8.15;;
80421;SDS011;69763;50.182;9.144;2024-03-06T12:05:44;14.82;;;8.00;;
80421;SDS011;69763;50.182;9.144;2024-03-06T12:08:09;18.73;;;8.85;;
80421;SDS011;69763;50.182;9.144;2024-03-06T12:10:36;15.98;;;8.75;;
80421;SDS011;69763;50.182;9.144;2024-03-06T12:13:02;16.70;;;8.45;;
80421;SDS011;69763;50.182;9.144;2024-03-06T12:15:29;18.58;;;7.93;;
80421;SDS011;69763;50.182;9.144;2024-03-06T12:17:54;15.57;;;7.43;;
80421;SDS011;69763;50.182;9.144;2024-03-06T12:20:20;15.65;;;7.95;;
80421;SDS011;69763;50.182;9.144;2024-03-06T12:22:47;15.95;;;8.13;;
80421;SDS011;69763;50.182;9.144;2024-03-06T12:25:17;16.23;;;8.95;;
80421;SDS011;69763;50.182;9.144;2024-03-06T12:27:43;17.05;;;7.78;;
80421;SDS011;69763;50.182;9.144;2024-03-06T12:30:09;13.32;;;7.25;;
80421;SDS011;69763;50.182;9.144;2024-03-06T12:35:02;13.85;;;6.55;;
80421;SDS011;69763;50.182;9.144;2024-03-06T12:37:30;13.40;;;6.55;;
80421;SDS011;69763;50.182;9.144;2024-03-06T12:39:56;14.68;;;7.25;;
80421;SDS011;69763;50.182;9.144;2024-03-06T12:42:21;11.45;;;5.60;;
80421;SDS011;69763;50.182;9.144;2024-03-06T12:44:47;14.40;;;6.30;;
80421;SDS011;69763;50.182;9.144;2024-03-06T12:47:12;17.23;;;7.90;;
80421;SDS011;69763;50.182;9.144;2024-03-06T12:49:39;13.43;;;6.35;;
80421;SDS011;69763;50.182;9.144;2024-03-06T12:52:04;11.45;;;6.00;;
80421;SDS011;69763;50.182;9.144;2024-03-06T12:54:30;13.23;;;7.13;;
80421;SDS011;69763;50.182;9.144;2024-03-06T12:56:55;12.88;;;6.95;;
80421;SDS011;69763;50.182;9.144;2024-03-06T12:59:21;16.35;;;8.30;;
80421;SDS011;69763;50.182;9.144;2024-03-06T13:01:46;25.17;;;10.85;;
80421;SDS011;69763;50.182;9.144;2024-03-06T13:04:11;17.70;;;9.13;;
80421;SDS011;69763;50.182;9.144;2024-03-06T13:06:38;21.90;;;9.48;;
80421;SDS011;69763;50.182;9.144;2024-03-06T13:09:03;19.80;;;9.30;;
80421;SDS011;69763;50.182;9.144;2024-03-06T13:11:29;18.20;;;9.07;;
80421;SDS011;69763;50.182;9.144;2024-03-06T13:13:54;18.42;;;8.93;;
80421;SDS011;69763;50.182;9.144;2024-03-06T13:16:19;17.13;;;8.75;;
80421;SDS011;69763;50.182;9.144;2024-03-06T13:18:45;18.25;;;8.52;;
80421;SDS011;69763;50.182;9.144;2024-03-06T13:21:10;16.45;;;8.32;;
80421;SDS011;69763;50.182;9.144;2024-03-06T13:23:37;17.42;;;8.63;;
80421;SDS011;69763;50.182;9.144;2024-03-06T13:26:02;16.92;;;7.82;;
80421;SDS011;69763;50.182;9.144;2024-03-06T13:28:28;19.98;;;8.32;;
80421;SDS011;69763;50.182;9.144;2024-03-06T13:30:53;17.23;;;8.88;;
80421;SDS011;69763;50.182;9.144;2024-03-06T13:33:19;17.58;;;8.90;;
80421;SDS011;69763;50.182;9.144;2024-03-06T13:35:44;20.35;;;9.15;;
80421;SDS011;69763;50.182;9.144;2024-03-06T13:38:09;20.25;;;8.65;;
80421;SDS011;69763;50.182;9.144;2024-03-06T13:40:36;23.23;;;10.40;;
80421;SDS011;69763;50.182;9.144;2024-03-06T13:43:02;17.38;;;7.53;;
80421;SDS011;69763;50.182;9.144;2024-03-06T13:45:27;18.92;;;8.90;;
80421;SDS011;69763;50.182;9.144;2024-03-06T13:47:52;16.73;;;8.25;;
80421;SDS011;69763;50.182;9.144;2024-03-06T13:50:18;17.02;;;8.32;;
80421;SDS011;69763;50.182;9.144;2024-03-06T13:52:43;18.52;;;8.15;;
80421;SDS011;69763;50.182;9.144;2024-03-06T13:55:09;15.55;;;7.80;;
80421;SDS011;69763;50.182;9.144;2024-03-06T13:57:36;14.82;;;7.40;;
80421;SDS011;69763;50.182;9.144;2024-03-06T14:00:03;15.90;;;7.55;;
80421;SDS011;69763;50.182;9.144;2024-03-06T14:02:29;21.98;;;8.13;;
80421;SDS011;69763;50.182;9.144;2024-03-06T14:04:55;16.77;;;8.60;;
80421;SDS011;69763;50.182;9.144;2024-03-06T14:07:20;14.68;;;7.75;;
80421;SDS011;69763;50.182;9.144;2024-03-06T14:09:46;16.38;;;7.72;;
80421;SDS011;69763;50.182;9.144;2024-03-06T14:12:11;18.08;;;8.27;;
80421;SDS011;69763;50.182;9.144;2024-03-06T14:14:38;15.88;;;8.10;;
80421;SDS011;69763;50.182;9.144;2024-03-06T14:17:04;16.45;;;8.35;;
80421;SDS011;69763;50.182;9.144;2024-03-06T14:19:29;14.80;;;8.32;;
80421;SDS011;69763;50.182;9.144;2024-03-06T14:21:54;17.98;;;8.27;;
80421;SDS011;69763;50.182;9.144;2024-03-06T14:24:20;16.23;;;8.30;;
80421;SDS011;69763;50.182;9.144;2024-03-06T14:26:46;17.80;;;8.48;;
80421;SDS011;69763;50.182;9.144;2024-03-06T14:29:11;18.02;;;8.40;;
80421;SDS011;69763;50.182;9.144;2024-03-06T14:31:38;17.85;;;7.90;;
80421;SDS011;69763;50.182;9.144;2024-03-06T14:34:03;21.27;;;8.15;;
80421;SDS011;69763;50.182;9.144;2024-03-06T14:36:29;18.15;;;8.90;;
80421;SDS011;69763;50.182;9.144;2024-03-06T14:38:54;14.05;;;7.00;;
80421;SDS011;69763;50.182;9.144;2024-03-06T14:41:19;15.70;;;7.72;;
80421;SDS011;69763;50.182;9.144;2024-03-06T14:43:45;17.83;;;8.57;;